createdAt,value
2023-04-16T00:09:31.550Z,97286.38
2023-04-16T00:13:52.350Z,97291.68
2023-04-16T00:18:19.803Z,97296.60
2023-04-16T00:22:47.992Z,97298.38
2023-04-16T00:26:54.153Z,97296.00
2023-04-16T00:31:02.432Z,97301.30
2023-04-16T00:35:31.120Z,97303.50
2023-04-16T00:39:35.314Z,97309.14
2023-04-16T00:44:01.805Z,97315.52
2023-04-16T00:48:10.345Z,97319.48
2023-04-16T00:52:38.244Z,97324.20
2023-04-16T00:57:09.782Z,97326.18
2023-04-16T01:01:27.342Z,97327.31
2023-04-16T01:05:46.055Z,97329.20
2023-04-16T01:09:50.469Z,97330.79
2023-04-16T01:14:11.744Z,97333.23
2023-04-16T01:18:43.824Z,97328.06
2023-04-16T01:22:51.895Z,97326.98
2023-04-16T01:27:23.931Z,97322.41
2023-04-16T01:32:04.181Z,97320.05
2023-04-16T01:36:29.415Z,97318.71
2023-04-16T01:40:50.535Z,97315.65
2023-04-16T01:45:08.139Z,97317.98
2023-04-16T01:49:14.253Z,97322.23
2023-04-16T01:53:19.580Z,97326.39
2023-04-16T01:57:31.581Z,97325.04
2023-04-16T02:01:43.838Z,97327.54
2023-04-16T02:05:55.787Z,97335.44
2023-04-16T02:10:24.535Z,97334.96
2023-04-16T02:14:49.658Z,97335.94
2023-04-16T02:19:29.426Z,97338.24
2023-04-16T02:24:01.706Z,97344.84
2023-04-16T02:28:29.760Z,97353.08
2023-04-16T02:33:04.394Z,97353.17
2023-04-16T02:37:37.096Z,97353.64
2023-04-16T02:42:05.149Z,97363.57
2023-04-16T02:46:37.504Z,97371.28
2023-04-16T02:51:02.750Z,97366.33
2023-04-16T02:55:30.830Z,97369.13
2023-04-16T03:00:03.127Z,97374.12
2023-04-16T03:08:17.155Z,97383.64
2023-04-16T03:12:30.762Z,97390.30
2023-04-16T03:16:56.065Z,97394.11
2023-04-16T03:21:35.700Z,97394.41
2023-04-16T03:25:42.639Z,97393.91
2023-04-16T03:30:02.657Z,97396.69
2023-04-16T03:34:23.789Z,97396.55
2023-04-16T03:38:49.814Z,97397.54
2023-04-16T03:43:33.749Z,97402.11
2023-04-16T03:48:03.294Z,97411.30
2023-04-16T03:52:13.879Z,97415.50
2023-04-16T03:56:46.833Z,97421.20
2023-04-16T04:01:18.617Z,97427.31
2023-04-16T04:05:55.196Z,97429.13
2023-04-16T04:10:37.917Z,97434.56
2023-04-16T04:15:03.011Z,97434.34
2023-04-16T04:19:09.026Z,97438.95
2023-04-16T04:23:30.711Z,97446.75
2023-04-16T04:27:40.398Z,97446.08
2023-04-16T04:32:09.956Z,97447.20
2023-04-16T04:36:39.371Z,97452.73
2023-04-16T04:41:00.496Z,97452.38
2023-04-16T04:45:04.717Z,97451.05
2023-04-16T04:49:33.126Z,97451.40
2023-04-16T04:53:52.397Z,97453.80
2023-04-16T04:57:56.510Z,97456.48
2023-04-16T05:02:05.115Z,97456.43
2023-04-16T05:06:13.344Z,97455.74
2023-04-16T05:10:20.940Z,97463.34
2023-04-16T05:14:51.804Z,97466.49
2023-04-16T05:18:50.895Z,97467.27
2023-04-16T05:22:55.260Z,97477.89
2023-04-16T05:27:19.621Z,97486.02
2023-04-16T05:39:37.171Z,97492.39
2023-04-16T05:43:47.097Z,97499.08
2023-04-16T05:47:59.275Z,97503.13
2023-04-16T05:52:18.987Z,97508.16
2023-04-16T05:56:15.423Z,97509.81
2023-04-16T06:00:41.314Z,97511.62
2023-04-16T06:04:47.756Z,97512.80
2023-04-16T06:08:26.438Z,97505.73
2023-04-16T06:12:10.729Z,97512.42
2023-04-16T06:15:45.572Z,97518.19
2023-04-16T06:20:02.554Z,97524.71
2023-04-16T06:23:12.260Z,97525.53
2023-04-16T06:27:13.711Z,97524.80
2023-04-16T06:30:24.550Z,97528.86
2023-04-16T06:33:35.213Z,97527.19
2023-04-16T06:37:08.361Z,97528.22
2023-04-16T06:40:26.097Z,97529.79
2023-04-16T06:44:22.030Z,97528.48
2023-04-16T06:48:16.282Z,97532.77
2023-04-16T06:51:36.427Z,97534.25
2023-04-16T06:54:42.401Z,97532.76
2023-04-16T06:57:49.520Z,97537.39
2023-04-16T07:01:13.016Z,97540.95
2023-04-16T07:08:53.225Z,97555.03
2023-04-16T07:12:17.940Z,97559.30
2023-04-16T07:15:23.845Z,97560.95
2023-04-16T07:18:33.123Z,97567.46
2023-04-16T07:21:45.139Z,97569.49
2023-04-16T07:25:02.412Z,97573.65
2023-04-16T07:28:28.743Z,97577.29
2023-04-16T07:31:53.098Z,97582.70
2023-04-16T07:34:57.260Z,97580.84
2023-04-16T07:38:31.491Z,97583.63
2023-04-16T07:42:02.828Z,97583.52
2023-04-16T07:45:28.713Z,97586.61
2023-04-16T07:48:49.676Z,97587.95
2023-04-16T07:52:13.856Z,97587.41
2023-04-16T07:55:19.007Z,97587.74
2023-04-16T07:58:23.717Z,97586.60
2023-04-16T08:01:36.152Z,97584.88
2023-04-16T08:08:30.809Z,97584.80
2023-04-16T08:11:51.468Z,97589.30
2023-04-16T08:15:20.266Z,97592.04
2023-04-16T08:18:31.662Z,97589.27
2023-04-16T08:21:35.669Z,97589.20
2023-04-16T08:24:38.749Z,97590.34
2023-04-16T08:27:43.900Z,97587.48
2023-04-16T08:30:46.898Z,97588.05
2023-04-16T08:38:08.418Z,97587.03
2023-04-16T08:41:15.966Z,97585.23
2023-04-16T08:44:32.249Z,97590.66
2023-04-16T08:47:39.158Z,97591.23
2023-04-16T08:50:55.650Z,97594.84
2023-04-16T08:54:04.358Z,97594.44
2023-04-16T08:57:19.850Z,97596.27
2023-04-16T09:00:42.079Z,97592.68
2023-04-16T09:03:49.290Z,97602.08
2023-04-16T09:07:10.283Z,97604.27
2023-04-16T09:10:15.024Z,97602.27
2023-04-16T09:13:22.927Z,97601.27
2023-04-16T09:16:43.277Z,97601.48
2023-04-16T09:20:06.578Z,97596.54
2023-04-16T09:23:11.530Z,97600.15
2023-04-16T09:26:23.286Z,97600.35
2023-04-16T09:29:56.435Z,97603.84
2023-04-16T09:33:25.339Z,97605.67
2023-04-16T09:36:32.417Z,97604.16
2023-04-16T09:39:36.303Z,97608.72
2023-04-16T09:42:41.256Z,97607.52
2023-04-16T09:45:52.040Z,97612.53
2023-04-16T09:49:10.564Z,97616.61
2023-04-16T09:52:43.423Z,97615.70
2023-04-16T09:55:47.649Z,97623.45
2023-04-16T09:58:51.152Z,97623.92
2023-04-16T10:02:15.669Z,97620.95
2023-04-16T10:05:28.088Z,97618.52
2023-04-16T10:08:31.482Z,97621.04
2023-04-16T10:11:35.012Z,97620.33
2023-04-16T10:14:46.861Z,97625.20
2023-04-16T10:17:53.125Z,97625.06
2023-04-16T10:20:57.605Z,97625.13
2023-04-16T10:24:00.717Z,97628.70
2023-04-16T10:27:04.128Z,97631.16
2023-04-16T10:30:09.868Z,97631.35
2023-04-16T10:33:15.096Z,97629.08
2023-04-16T10:36:43.076Z,97636.18
2023-04-16T10:39:53.628Z,97634.46
2023-04-16T10:43:01.165Z,97632.66
2023-04-16T10:46:27.172Z,97637.33
2023-04-16T10:49:32.168Z,97636.75
2023-04-16T10:52:35.473Z,97633.54
2023-04-16T10:56:17.530Z,97631.30
2023-04-16T10:59:36.262Z,97634.73
2023-04-16T11:03:08.892Z,97634.89
2023-04-16T11:06:32.279Z,97632.14
2023-04-16T11:09:59.763Z,97632.64
2023-04-16T11:13:11.272Z,97632.38
2023-04-16T11:16:42.931Z,97642.19
2023-04-16T11:19:48.508Z,97645.98
2023-04-16T11:22:58.775Z,97640.19
2023-04-16T11:26:28.243Z,97636.67
2023-04-16T11:29:32.535Z,97640.90
2023-04-16T11:32:55.925Z,97642.48
2023-04-16T11:36:01.817Z,97636.84
2023-04-16T11:39:05.689Z,97633.59
2023-04-16T11:42:23.258Z,97633.18
2023-04-16T11:45:34.799Z,97632.06
2023-04-16T11:49:28.011Z,97628.58
2023-04-16T11:52:36.545Z,97630.61
2023-04-16T11:55:57.446Z,97631.52
2023-04-16T12:00:02.532Z,97627.95
2023-04-16T12:03:47.443Z,97636.58
2023-04-16T12:07:19.019Z,97641.77
2023-04-16T12:10:35.313Z,97638.08
2023-04-16T12:14:43.596Z,97640.10
2023-04-16T12:18:27.430Z,97637.44
2023-04-16T12:21:42.335Z,97635.98
2023-04-16T12:24:56.783Z,97632.35
2023-04-16T12:28:28.850Z,97624.67
2023-04-16T12:31:40.792Z,97624.06
2023-04-16T12:35:12.468Z,97615.92
2023-04-16T12:38:56.886Z,97622.10
2023-04-16T12:42:10.948Z,97621.86
2023-04-16T12:45:26.931Z,97612.30
2023-04-16T12:48:34.700Z,97616.61
2023-04-16T12:52:04.530Z,97615.18
2023-04-16T12:55:10.948Z,97615.18
2023-04-16T12:58:54.347Z,97612.98
2023-04-16T13:02:17.796Z,97614.75
2023-04-16T13:05:45.797Z,97610.50
2023-04-16T13:17:31.404Z,97610.13
2023-04-16T13:20:39.357Z,97610.51
2023-04-16T13:23:52.033Z,97610.84
2023-04-16T13:27:05.193Z,97608.25
2023-04-16T13:30:33.668Z,97612.23
2023-04-16T13:34:26.105Z,97610.26
2023-04-16T13:37:35.138Z,97605.80
2023-04-16T13:40:42.774Z,97601.91
2023-04-16T13:43:50.515Z,97600.83
2023-04-16T13:47:03.056Z,97598.54
2023-04-16T13:50:13.736Z,97599.13
2023-04-16T13:53:42.111Z,97603.77
2023-04-16T13:57:09.654Z,97599.80
2023-04-16T14:00:28.317Z,97599.19
2023-04-16T14:03:55.135Z,97602.80
2023-04-16T14:07:39.959Z,97602.72
2023-04-16T14:12:01.476Z,97600.77
2023-04-16T14:15:45.261Z,97608.56
2023-04-16T14:18:52.847Z,97606.16
2023-04-16T14:22:18.489Z,97597.27
2023-04-16T14:25:25.456Z,97598.05
2023-04-16T14:28:47.946Z,97602.15
2023-04-16T14:32:05.408Z,97594.54
2023-04-16T14:35:35.122Z,97598.84
2023-04-16T14:39:25.124Z,97594.13
2023-04-16T14:42:30.394Z,97599.86
2023-04-16T14:46:55.835Z,97594.50
2023-04-16T14:50:08.563Z,97590.60
2023-04-16T14:53:17.831Z,97591.70
2023-04-16T14:56:28.805Z,97590.95
2023-04-16T15:00:25.146Z,97595.90
2023-04-16T15:04:57.331Z,97594.70
2023-04-16T15:08:46.839Z,97596.98
2023-04-16T15:12:10.899Z,97592.39
2023-04-16T15:15:40.695Z,97591.79
2023-04-16T15:19:22.859Z,97589.58
2023-04-16T15:23:06.210Z,97586.21
2023-04-16T15:26:11.753Z,97586.55
2023-04-16T15:30:21.955Z,97588.23
2023-04-16T15:33:40.232Z,97592.77
2023-04-16T15:37:01.319Z,97592.68
2023-04-16T15:40:07.956Z,97592.55
2023-04-16T15:43:48.312Z,97594.23
2023-04-16T15:47:25.851Z,97600.14
2023-04-16T15:50:31.976Z,97601.52
2023-04-16T15:54:19.441Z,97596.82
2023-04-16T15:57:43.448Z,97600.18
2023-04-16T16:05:09.128Z,97603.00
2023-04-16T16:08:15.524Z,97610.02
2023-04-16T16:11:44.463Z,97607.16
2023-04-16T16:15:36.097Z,97608.70
2023-04-16T16:18:55.043Z,97607.92
2023-04-16T16:22:03.485Z,97609.22
2023-04-16T16:25:37.979Z,97608.73
2023-04-16T16:28:49.418Z,97617.42
2023-04-16T16:32:41.002Z,97612.33
2023-04-16T16:36:25.715Z,97614.92
2023-04-16T16:40:25.994Z,97621.80
2023-04-16T16:43:51.617Z,97623.58
2023-04-16T16:47:08.257Z,97625.98
2023-04-16T16:50:56.190Z,97629.54
2023-04-16T16:54:22.649Z,97629.80
2023-04-16T16:57:29.694Z,97635.10
2023-04-16T17:00:33.075Z,97639.70
2023-04-16T17:08:07.597Z,97644.70
2023-04-16T17:11:28.106Z,97647.25
2023-04-16T17:15:12.575Z,97646.49
2023-04-16T17:18:34.862Z,97653.65
2023-04-16T17:22:02.953Z,97658.45
2023-04-16T17:26:16.236Z,97662.91
2023-04-16T17:30:47.364Z,97669.91
2023-04-16T17:34:37.125Z,97672.90
2023-04-16T17:38:21.185Z,97674.73
2023-04-16T17:42:35.509Z,97678.07
2023-04-16T17:46:46.450Z,97680.92
2023-04-16T17:51:21.874Z,97683.64
2023-04-16T17:55:21.170Z,97692.82
2023-04-16T17:59:07.495Z,97691.71
2023-04-16T18:02:56.759Z,97694.98
2023-04-16T18:06:54.824Z,97696.73
2023-04-16T18:11:02.527Z,97703.34
2023-04-16T18:15:11.750Z,97703.98
2023-04-16T18:19:16.547Z,97708.64
2023-04-16T18:23:48.120Z,97715.27
2023-04-16T18:28:13.687Z,97718.13
2023-04-16T18:32:06.789Z,97718.80
2023-04-16T18:36:03.636Z,97727.48
2023-04-16T18:40:08.319Z,97727.45
2023-04-16T18:44:20.670Z,97729.38
2023-04-16T18:48:34.622Z,97730.38
2023-04-16T18:52:59.709Z,97734.75
2023-04-16T18:56:47.803Z,97734.19
2023-04-16T19:00:54.415Z,97731.52
2023-04-16T19:05:11.554Z,97729.91
2023-04-16T19:09:15.142Z,97733.63
2023-04-16T19:13:21.639Z,97734.90
2023-04-16T19:17:34.935Z,97732.92
2023-04-16T19:22:01.850Z,97730.79
2023-04-16T19:26:25.779Z,97723.32
2023-04-16T19:30:48.594Z,97728.48
2023-04-16T19:34:54.500Z,97728.83
2023-04-16T19:39:16.705Z,97731.84
2023-04-16T19:43:32.547Z,97726.96
2023-04-16T19:47:56.872Z,97727.50
2023-04-16T19:52:03.610Z,97730.61
2023-04-16T19:56:11.964Z,97732.29
2023-04-16T20:00:32.677Z,97733.35
2023-04-16T20:04:53.602Z,97732.89
2023-04-16T20:08:51.576Z,97733.27
2023-04-16T20:13:17.404Z,97734.46
2023-04-16T20:17:24.907Z,97731.20
2023-04-16T20:21:49.365Z,97730.02
2023-04-16T20:25:38.427Z,97733.39
2023-04-16T20:30:09.972Z,97736.27
2023-04-16T20:34:52.304Z,97739.69
2023-04-16T20:44:11.856Z,97737.09
2023-04-16T20:48:36.841Z,97738.59
2023-04-16T20:52:41.512Z,97734.02
2023-04-16T20:57:10.551Z,97733.02
2023-04-16T21:01:17.039Z,97735.75
2023-04-16T21:05:58.565Z,97738.40
2023-04-16T21:10:30.708Z,97737.95
2023-04-16T21:14:58.225Z,97739.14
2023-04-16T21:19:02.426Z,97736.63
2023-04-16T21:23:07.296Z,97736.83
2023-04-16T21:27:33.048Z,97739.70
2023-04-16T21:32:21.276Z,97739.22
2023-04-16T21:36:45.390Z,97731.47
2023-04-16T21:40:45.201Z,97729.98
2023-04-16T21:45:10.504Z,97729.01
2023-04-16T21:49:48.966Z,97727.89
2023-04-16T21:54:14.944Z,97724.73
2023-04-16T21:58:34.221Z,97725.61
2023-04-16T22:02:40.415Z,97730.48
2023-04-16T22:07:20.662Z,97734.30
2023-04-16T22:11:45.363Z,97733.21
2023-04-16T22:16:09.432Z,97734.33
2023-04-16T22:20:16.719Z,97736.34
2023-04-16T22:25:00.462Z,97736.64
2023-04-16T22:29:23.812Z,97736.72
2023-04-16T22:33:44.343Z,97739.13
2023-04-16T22:37:42.878Z,97738.65
2023-04-16T22:42:11.203Z,97739.69
2023-04-16T22:46:20.896Z,97742.67
2023-04-16T22:50:49.462Z,97745.30
2023-04-16T22:55:18.507Z,97754.57
2023-04-16T22:59:23.235Z,97759.02
2023-04-16T23:03:45.698Z,97755.27
2023-04-16T23:08:29.293Z,97747.39
2023-04-16T23:12:33.871Z,97744.14
2023-04-16T23:16:57.856Z,97745.83
2023-04-16T23:21:02.092Z,97739.91
2023-04-16T23:25:38.887Z,97735.38
2023-04-16T23:30:07.689Z,97735.36
2023-04-16T23:33:46.487Z,97740.35
2023-04-16T23:38:11.118Z,97734.30
2023-04-16T23:42:35.452Z,97738.64
2023-04-16T23:47:00.240Z,97735.05
2023-04-16T23:51:44.652Z,97737.55
2023-04-16T23:55:57.886Z,97733.65
